AEE498 LGKO-LGSK
Flight info
| Callsign | AEE498 |
|---|---|
| Flight time | 0h 49m |
| Altitude | 32000 |
| Route | KOPAR UL995 AKINA UN133 RIGRO DCT SIGFO |
| Aircraft | A320/M-SDE3FGHIRWY/LB1 |
Departure
| Time | 2026-04-14 08:18 |
|---|---|
| Airport | Kos International Airport "Ippokratis" (LGKO) |
Arrival
| Time | 2026-04-14 09:08 |
|---|---|
| Airport | Skiathos Island National Airport (LGSK) |
| Time | Latitude | Longitude | Altitude | Speed | Heading |
|---|---|---|---|---|---|
| 2026-04-14 08:10 | 36.80040 | 27.09000 | 445 ft | 0 kts | 57° |
| 2026-04-14 08:13 | 36.80032 | 27.08984 | 445 ft | 4 kts | 56° |
| 2026-04-14 08:13 | 36.80016 | 27.08958 | 440 ft | 4 kts | 43° |
| 2026-04-14 08:14 | 36.79995 | 27.08942 | 432 ft | 4 kts | 357° |
| 2026-04-14 08:14 | 36.79986 | 27.08944 | 435 ft | 0 kts | 328° |
| 2026-04-14 08:16 | 36.79988 | 27.08941 | 434 ft | 2 kts | 328° |
| 2026-04-14 08:16 | 36.80052 | 27.08895 | 445 ft | 16 kts | 328° |
| 2026-04-14 08:16 | 36.80152 | 27.08819 | 440 ft | 18 kts | 328° |
| 2026-04-14 08:16 | 36.80264 | 27.08733 | 445 ft | 20 kts | 328° |
| 2026-04-14 08:17 | 36.80344 | 27.08595 | 442 ft | 21 kts | 286° |
| 2026-04-14 08:17 | 36.80332 | 27.08454 | 435 ft | 15 kts | 199° |
| 2026-04-14 08:17 | 36.80289 | 27.08468 | 433 ft | 0 kts | 148° |
| 2026-04-14 08:17 | 36.80279 | 27.08476 | 438 ft | 11 kts | 148° |
| 2026-04-14 08:18 | 36.79989 | 27.08703 | 430 ft | 84 kts | 148° |
| 2026-04-14 08:18 | 36.79325 | 27.09220 | 443 ft | 139 kts | 148° |
| 2026-04-14 08:18 | 36.78446 | 27.09913 | 771 ft | 157 kts | 145° |
| 2026-04-14 08:18 | 36.77482 | 27.10693 | 1316 ft | 171 kts | 146° |
| 2026-04-14 08:19 | 36.76456 | 27.11526 | 2034 ft | 180 kts | 147° |
| 2026-04-14 08:19 | 36.75367 | 27.12385 | 2643 ft | 192 kts | 149° |
| 2026-04-14 08:19 | 36.74373 | 27.13569 | 3083 ft | 210 kts | 116° |
| 2026-04-14 08:19 | 36.74244 | 27.15414 | 3678 ft | 226 kts | 76° |
| 2026-04-14 08:20 | 36.74844 | 27.17308 | 4259 ft | 245 kts | 65° |
| 2026-04-14 08:20 | 36.75693 | 27.19235 | 4848 ft | 262 kts | 54° |
| 2026-04-14 08:20 | 36.77064 | 27.20804 | 5501 ft | 275 kts | 26° |
| 2026-04-14 08:20 | 36.78905 | 27.21401 | 6345 ft | 276 kts | 356° |
| 2026-04-14 08:21 | 36.80740 | 27.20850 | 7260 ft | 273 kts | 329° |
| 2026-04-14 08:21 | 36.82143 | 27.19296 | 8101 ft | 273 kts | 301° |
| 2026-04-14 08:21 | 36.82798 | 27.17084 | 8994 ft | 275 kts | 274° |
| 2026-04-14 08:21 | 36.82853 | 27.14678 | 9795 ft | 281 kts | 269° |
| 2026-04-14 08:22 | 36.82860 | 27.12245 | 10524 ft | 289 kts | 269° |
| 2026-04-14 08:22 | 36.82862 | 27.09662 | 10969 ft | 306 kts | 269° |
| 2026-04-14 08:22 | 36.82866 | 27.06929 | 11371 ft | 323 kts | 269° |
| 2026-04-14 08:22 | 36.82873 | 27.04056 | 11789 ft | 338 kts | 269° |
| 2026-04-14 08:23 | 36.82887 | 27.01094 | 12443 ft | 344 kts | 269° |
| 2026-04-14 08:23 | 36.82906 | 26.98102 | 13193 ft | 346 kts | 268° |
| 2026-04-14 08:23 | 36.82925 | 26.95081 | 13948 ft | 349 kts | 268° |
| 2026-04-14 08:23 | 36.82940 | 26.92038 | 14614 ft | 351 kts | 268° |
| 2026-04-14 08:24 | 36.82953 | 26.88983 | 15291 ft | 353 kts | 268° |
| 2026-04-14 08:24 | 36.82964 | 26.85910 | 15962 ft | 354 kts | 268° |
| 2026-04-14 08:24 | 36.82975 | 26.82821 | 16620 ft | 356 kts | 268° |
| 2026-04-14 08:24 | 36.82987 | 26.79726 | 17299 ft | 358 kts | 268° |
| 2026-04-14 08:25 | 36.82996 | 26.76607 | 17980 ft | 359 kts | 268° |
| 2026-04-14 08:25 | 36.83006 | 26.73476 | 18654 ft | 361 kts | 268° |
| 2026-04-14 08:25 | 36.83102 | 26.70329 | 19252 ft | 365 kts | 275° |
| 2026-04-14 08:25 | 36.83637 | 26.67254 | 19833 ft | 371 kts | 285° |
| 2026-04-14 08:26 | 36.84614 | 26.64245 | 20419 ft | 376 kts | 290° |
| 2026-04-14 08:26 | 36.85662 | 26.61231 | 20986 ft | 379 kts | 290° |
| 2026-04-14 08:26 | 36.86706 | 26.58195 | 21544 ft | 382 kts | 290° |
| 2026-04-14 08:26 | 36.87757 | 26.55119 | 22080 ft | 386 kts | 290° |
| 2026-04-14 08:27 | 36.88808 | 26.52026 | 22605 ft | 389 kts | 290° |
| 2026-04-14 08:27 | 36.89866 | 26.48902 | 23120 ft | 392 kts | 290° |
| 2026-04-14 08:27 | 36.90934 | 26.45752 | 23621 ft | 394 kts | 290° |
| 2026-04-14 08:27 | 36.92015 | 26.42586 | 24069 ft | 397 kts | 290° |
| 2026-04-14 08:28 | 36.93101 | 26.39405 | 24508 ft | 399 kts | 290° |
| 2026-04-14 08:28 | 36.94189 | 26.36210 | 24949 ft | 400 kts | 290° |
| 2026-04-14 08:28 | 36.95280 | 26.33005 | 25384 ft | 401 kts | 290° |
| 2026-04-14 08:28 | 36.96422 | 26.29822 | 25809 ft | 404 kts | 295° |
| 2026-04-14 08:29 | 36.97971 | 26.26866 | 26236 ft | 410 kts | 305° |
| 2026-04-14 08:29 | 36.99976 | 26.24300 | 26661 ft | 416 kts | 316° |
| 2026-04-14 08:29 | 37.02386 | 26.22233 | 27058 ft | 425 kts | 327° |
| 2026-04-14 08:29 | 37.05051 | 26.20581 | 27438 ft | 428 kts | 329° |
| 2026-04-14 08:30 | 37.07741 | 26.18943 | 27819 ft | 430 kts | 329° |
| 2026-04-14 08:30 | 37.10433 | 26.17296 | 28204 ft | 432 kts | 328° |
| 2026-04-14 08:30 | 37.13139 | 26.15641 | 28586 ft | 434 kts | 328° |
| 2026-04-14 08:30 | 37.15858 | 26.13978 | 28959 ft | 435 kts | 328° |
| 2026-04-14 08:31 | 37.18585 | 26.12311 | 29329 ft | 437 kts | 328° |
| 2026-04-14 08:31 | 37.24068 | 26.08946 | 30032 ft | 441 kts | 328° |
| 2026-04-14 08:31 | 37.26828 | 26.07249 | 30346 ft | 443 kts | 328° |
| 2026-04-14 08:32 | 37.29602 | 26.05551 | 30637 ft | 444 kts | 328° |
| 2026-04-14 08:32 | 37.32379 | 26.03851 | 31032 ft | 443 kts | 328° |
| 2026-04-14 08:32 | 37.35140 | 26.02157 | 31466 ft | 440 kts | 328° |
| 2026-04-14 08:32 | 37.37852 | 26.00488 | 31904 ft | 438 kts | 328° |
| 2026-04-14 08:33 | 37.40587 | 25.98801 | 32162 ft | 437 kts | 327° |
| 2026-04-14 08:33 | 37.43291 | 25.97136 | 32209 ft | 430 kts | 327° |
| 2026-04-14 08:33 | 37.48652 | 25.93828 | 32205 ft | 429 kts | 327° |
| 2026-04-14 08:34 | 37.54018 | 25.90505 | 32207 ft | 429 kts | 327° |
| 2026-04-14 08:34 | 37.59041 | 25.86621 | 32206 ft | 418 kts | 313° |
| 2026-04-14 08:35 | 37.62874 | 25.81267 | 32205 ft | 409 kts | 303° |
| 2026-04-14 08:35 | 37.66405 | 25.75639 | 32200 ft | 409 kts | 302° |
| 2026-04-14 08:36 | 37.69945 | 25.69996 | 32208 ft | 409 kts | 302° |
| 2026-04-14 08:36 | 37.73454 | 25.64390 | 32209 ft | 409 kts | 302° |
| 2026-04-14 08:37 | 37.76977 | 25.58751 | 32206 ft | 408 kts | 302° |
| 2026-04-14 08:37 | 37.80493 | 25.53110 | 32201 ft | 409 kts | 302° |
| 2026-04-14 08:38 | 37.84013 | 25.47462 | 32204 ft | 409 kts | 302° |
| 2026-04-14 08:38 | 37.87529 | 25.41811 | 32205 ft | 409 kts | 302° |
| 2026-04-14 08:39 | 37.91040 | 25.36149 | 32208 ft | 408 kts | 302° |
| 2026-04-14 08:39 | 37.94542 | 25.30486 | 32206 ft | 408 kts | 301° |
| 2026-04-14 08:40 | 37.98051 | 25.24816 | 32211 ft | 408 kts | 301° |
| 2026-04-14 08:40 | 38.01548 | 25.19146 | 32204 ft | 408 kts | 301° |
| 2026-04-14 08:41 | 38.05041 | 25.13466 | 32205 ft | 408 kts | 301° |
| 2026-04-14 08:41 | 38.08511 | 25.07823 | 32206 ft | 408 kts | 301° |
| 2026-04-14 08:42 | 38.11997 | 25.02152 | 32209 ft | 407 kts | 301° |
| 2026-04-14 08:42 | 38.15486 | 24.96471 | 32205 ft | 407 kts | 301° |
| 2026-04-14 08:43 | 38.18963 | 24.90784 | 32207 ft | 407 kts | 301° |
| 2026-04-14 08:43 | 38.22430 | 24.85101 | 32217 ft | 406 kts | 301° |
| 2026-04-14 08:44 | 38.25892 | 24.79427 | 32211 ft | 406 kts | 300° |
| 2026-04-14 08:44 | 38.29350 | 24.73744 | 32211 ft | 405 kts | 300° |
| 2026-04-14 08:45 | 38.32796 | 24.68060 | 31253 ft | 410 kts | 301° |
| 2026-04-14 08:45 | 38.34549 | 24.65164 | 29762 ft | 413 kts | 301° |
| 2026-04-14 08:45 | 38.36271 | 24.62333 | 29306 ft | 390 kts | 301° |
| 2026-04-14 08:46 | 38.37888 | 24.59698 | 29120 ft | 367 kts | 301° |
| 2026-04-14 08:46 | 38.39464 | 24.57104 | 28621 ft | 373 kts | 301° |
| 2026-04-14 08:46 | 38.41042 | 24.54482 | 28083 ft | 372 kts | 301° |
| 2026-04-14 08:46 | 38.42611 | 24.51876 | 27572 ft | 369 kts | 301° |
| 2026-04-14 08:47 | 38.44172 | 24.49290 | 27056 ft | 367 kts | 301° |
| 2026-04-14 08:47 | 38.45723 | 24.46719 | 26546 ft | 366 kts | 301° |
| 2026-04-14 08:47 | 38.47277 | 24.44145 | 26027 ft | 365 kts | 301° |
| 2026-04-14 08:47 | 38.48823 | 24.41583 | 25512 ft | 364 kts | 301° |
| 2026-04-14 08:48 | 38.50343 | 24.39055 | 25017 ft | 363 kts | 301° |
| 2026-04-14 08:48 | 38.51879 | 24.36493 | 24509 ft | 362 kts | 302° |
| 2026-04-14 08:48 | 38.52911 | 24.34770 | 24182 ft | 362 kts | 302° |
| 2026-04-14 08:48 | 38.54426 | 24.32241 | 23678 ft | 362 kts | 302° |
| 2026-04-14 08:49 | 38.55955 | 24.29689 | 23163 ft | 360 kts | 302° |
| 2026-04-14 08:49 | 38.57476 | 24.27156 | 22691 ft | 357 kts | 302° |
| 2026-04-14 08:49 | 38.58981 | 24.24653 | 22246 ft | 353 kts | 302° |
| 2026-04-14 08:49 | 38.60469 | 24.22179 | 21806 ft | 349 kts | 302° |
| 2026-04-14 08:50 | 38.61940 | 24.19725 | 21366 ft | 347 kts | 302° |
| 2026-04-14 08:50 | 38.63401 | 24.17275 | 20940 ft | 346 kts | 302° |
| 2026-04-14 08:50 | 38.64858 | 24.14824 | 20505 ft | 346 kts | 302° |
| 2026-04-14 08:50 | 38.66313 | 24.12379 | 20037 ft | 345 kts | 302° |
| 2026-04-14 08:51 | 38.67771 | 24.09933 | 19595 ft | 345 kts | 302° |
| 2026-04-14 08:51 | 38.69224 | 24.07497 | 19125 ft | 344 kts | 303° |
| 2026-04-14 08:51 | 38.70677 | 24.05061 | 18657 ft | 344 kts | 303° |
| 2026-04-14 08:51 | 38.72128 | 24.02629 | 18128 ft | 343 kts | 303° |
| 2026-04-14 08:52 | 38.73573 | 24.00203 | 17634 ft | 341 kts | 303° |
| 2026-04-14 08:52 | 38.75003 | 23.97795 | 17135 ft | 339 kts | 303° |
| 2026-04-14 08:52 | 38.76406 | 23.95426 | 16649 ft | 336 kts | 303° |
| 2026-04-14 08:52 | 38.77815 | 23.93044 | 16151 ft | 335 kts | 303° |
| 2026-04-14 08:53 | 38.79222 | 23.90670 | 15657 ft | 334 kts | 303° |
| 2026-04-14 08:53 | 38.80622 | 23.88306 | 15161 ft | 333 kts | 303° |
| 2026-04-14 08:53 | 38.82020 | 23.85947 | 14667 ft | 332 kts | 303° |
| 2026-04-14 08:53 | 38.83413 | 23.83595 | 14158 ft | 331 kts | 303° |
| 2026-04-14 08:54 | 38.84807 | 23.81241 | 13629 ft | 330 kts | 303° |
| 2026-04-14 08:54 | 38.86193 | 23.78894 | 13116 ft | 328 kts | 303° |
| 2026-04-14 08:54 | 38.87571 | 23.76560 | 12625 ft | 326 kts | 303° |
| 2026-04-14 08:54 | 38.88919 | 23.74276 | 12128 ft | 325 kts | 303° |
| 2026-04-14 08:55 | 38.90279 | 23.71971 | 11637 ft | 323 kts | 303° |
| 2026-04-14 08:55 | 38.91631 | 23.69673 | 11137 ft | 322 kts | 303° |
| 2026-04-14 08:55 | 38.93075 | 23.67472 | 10644 ft | 325 kts | 313° |
| 2026-04-14 08:55 | 38.94903 | 23.65810 | 10490 ft | 319 kts | 328° |
| 2026-04-14 08:56 | 38.96947 | 23.64808 | 10372 ft | 312 kts | 343° |
| 2026-04-14 08:56 | 38.99083 | 23.64383 | 9956 ft | 309 kts | 349° |
| 2026-04-14 08:56 | 39.01209 | 23.64061 | 9331 ft | 304 kts | 350° |
| 2026-04-14 08:56 | 39.03295 | 23.63761 | 8715 ft | 300 kts | 350° |
| 2026-04-14 08:57 | 39.05354 | 23.63468 | 8109 ft | 296 kts | 351° |
| 2026-04-14 08:57 | 39.07391 | 23.63174 | 7515 ft | 293 kts | 351° |
| 2026-04-14 08:57 | 39.09383 | 23.62882 | 6947 ft | 291 kts | 351° |
| 2026-04-14 08:57 | 39.11385 | 23.62586 | 6365 ft | 289 kts | 351° |
| 2026-04-14 08:58 | 39.13382 | 23.62290 | 6172 ft | 289 kts | 351° |
| 2026-04-14 08:58 | 39.15383 | 23.61991 | 6040 ft | 289 kts | 351° |
| 2026-04-14 08:58 | 39.17380 | 23.61693 | 5779 ft | 289 kts | 352° |
| 2026-04-14 08:58 | 39.19352 | 23.61330 | 5354 ft | 286 kts | 343° |
| 2026-04-14 08:59 | 39.21130 | 23.60263 | 4935 ft | 281 kts | 320° |
| 2026-04-14 08:59 | 39.22431 | 23.58456 | 4500 ft | 272 kts | 297° |
| 2026-04-14 08:59 | 39.23077 | 23.56212 | 4069 ft | 266 kts | 275° |
| 2026-04-14 08:59 | 39.23027 | 23.53893 | 3640 ft | 253 kts | 254° |
| 2026-04-14 09:00 | 39.22362 | 23.51866 | 3214 ft | 240 kts | 232° |
| 2026-04-14 09:00 | 39.21214 | 23.50451 | 3030 ft | 222 kts | 207° |
| 2026-04-14 09:00 | 39.19727 | 23.49754 | 2907 ft | 234 kts | 185° |
| 2026-04-14 09:00 | 39.18128 | 23.49921 | 2785 ft | 230 kts | 160° |
| 2026-04-14 09:01 | 39.16752 | 23.50915 | 2642 ft | 228 kts | 137° |
| 2026-04-14 09:01 | 39.15818 | 23.52559 | 2694 ft | 230 kts | 115° |
| 2026-04-14 09:01 | 39.15149 | 23.54443 | 2912 ft | 231 kts | 117° |
| 2026-04-14 09:01 | 39.14181 | 23.56071 | 2995 ft | 232 kts | 142° |
| 2026-04-14 09:02 | 39.12788 | 23.56951 | 3009 ft | 223 kts | 167° |
| 2026-04-14 09:02 | 39.11238 | 23.56972 | 3012 ft | 224 kts | 192° |
| 2026-04-14 09:02 | 39.09799 | 23.56202 | 3014 ft | 226 kts | 206° |
| 2026-04-14 09:02 | 39.08399 | 23.55277 | 3014 ft | 226 kts | 205° |
| 2026-04-14 09:03 | 39.06998 | 23.54366 | 3011 ft | 225 kts | 205° |
| 2026-04-14 09:03 | 39.05595 | 23.53453 | 3013 ft | 226 kts | 205° |
| 2026-04-14 09:03 | 39.04196 | 23.52542 | 3012 ft | 225 kts | 205° |
| 2026-04-14 09:03 | 39.02822 | 23.51568 | 3009 ft | 225 kts | 217° |
| 2026-04-14 09:04 | 39.02020 | 23.49965 | 3010 ft | 210 kts | 258° |
| 2026-04-14 09:04 | 39.02151 | 23.48184 | 3013 ft | 198 kts | 295° |
| 2026-04-14 09:04 | 39.03030 | 23.46878 | 3017 ft | 196 kts | 330° |
| 2026-04-14 09:04 | 39.04329 | 23.46448 | 3018 ft | 195 kts | 7° |
| 2026-04-14 09:05 | 39.05649 | 23.46801 | 3025 ft | 194 kts | 15° |
| 2026-04-14 09:05 | 39.06971 | 23.47201 | 2848 ft | 197 kts | 15° |
| 2026-04-14 09:05 | 39.08306 | 23.47595 | 2473 ft | 195 kts | 15° |
| 2026-04-14 09:05 | 39.09607 | 23.47788 | 2070 ft | 186 kts | 4° |
| 2026-04-14 09:06 | 39.10876 | 23.47811 | 1653 ft | 177 kts | 3° |
| 2026-04-14 09:06 | 39.12018 | 23.48007 | 1315 ft | 154 kts | 16° |
| 2026-04-14 09:06 | 39.12980 | 23.48390 | 1004 ft | 139 kts | 14° |
| 2026-04-14 09:06 | 39.13894 | 23.48640 | 751 ft | 135 kts | 17° |
| 2026-04-14 09:07 | 39.14792 | 23.49061 | 521 ft | 138 kts | 20° |
| 2026-04-14 09:07 | 39.15696 | 23.49460 | 349 ft | 137 kts | 22° |
| 2026-04-14 09:07 | 39.16594 | 23.49863 | 161 ft | 136 kts | 20° |
| 2026-04-14 09:07 | 39.17473 | 23.50250 | 36 ft | 125 kts | 20° |
| 2026-04-14 09:08 | 39.18120 | 23.50546 | 47 ft | 59 kts | 19° |
| 2026-04-14 09:08 | 39.18284 | 23.50613 | 56 ft | 12 kts | 17° |
| 2026-04-14 09:08 | 39.18364 | 23.50648 | 56 ft | 12 kts | 19° |
| 2026-04-14 09:08 | 39.18420 | 23.50666 | 59 ft | 1 kts | 328° |
| 2026-04-14 09:09 | 39.18413 | 23.50659 | 58 ft | 1 kts | 206° |
| 2026-04-14 09:09 | 39.18357 | 23.50638 | 57 ft | 13 kts | 197° |
| 2026-04-14 09:09 | 39.18257 | 23.50597 | 47 ft | 18 kts | 198° |
| 2026-04-14 09:09 | 39.18118 | 23.50537 | 47 ft | 24 kts | 200° |
| 2026-04-14 09:10 | 39.17988 | 23.50481 | 44 ft | 17 kts | 198° |
| 2026-04-14 09:10 | 39.17894 | 23.50442 | 41 ft | 14 kts | 194° |
| 2026-04-14 09:10 | 39.17790 | 23.50397 | 40 ft | 17 kts | 201° |
| 2026-04-14 09:10 | 39.17709 | 23.50320 | 40 ft | 13 kts | 243° |
| 2026-04-14 09:11 | 39.17705 | 23.50296 | 39 ft | 1 kts | 258° |
| 2026-04-14 09:11 | 39.17712 | 23.50279 | 39 ft | 4 kts | 309° |
| 2026-04-14 09:11 | 39.17753 | 23.50263 | 40 ft | 15 kts | 4° |
| 2026-04-14 09:11 | 39.17856 | 23.50308 | 42 ft | 12 kts | 20° |
| 2026-04-14 09:12 | 39.17895 | 23.50299 | 43 ft | 1 kts | 301° |
| 2026-04-14 09:12 | 39.17904 | 23.50260 | 49 ft | 11 kts | 288° |
| 2026-04-14 09:12 | 39.17913 | 23.50227 | 54 ft | 0 kts | 288° |
| 2026-04-14 09:12 | 39.17914 | 23.50225 | 54 ft | 0 kts | 288° |